Time;durP1;ratioP1;P1;durP2;ratioP2;P2;SDS_P1;SDS_P2;PMS_P1;PMS_P2;Temp;Humidity;BMP_temperature;BMP_pressure;BME280_temperature;BME280_humidity;BME280_pressure;Samples;Min_cycle;Max_cycle;Signal;HPM_P1;HPM_P2
2023/06/20 00:00:55;;;;;;;1.40;0.90;;;17.00;99.90;;;;;;4931738;29;20219;-84
2023/06/20 00:03:26;;;;;;;1.33;0.90;;;16.90;99.90;;;;;;4931336;29;20218;-83
2023/06/20 00:05:57;;;;;;;1.97;0.90;;;16.80;99.90;;;;;;4929758;29;20304;-86
2023/06/20 00:08:29;;;;;;;2.30;0.83;;;16.80;99.90;;;;;;4931698;29;20568;-83
2023/06/20 00:11:01;;;;;;;2.63;1.00;;;16.90;99.90;;;;;;4933978;29;20247;-84
2023/06/20 00:13:34;;;;;;;2.07;1.03;;;16.80;99.90;;;;;;4929468;29;20304;-83
2023/06/20 00:16:05;;;;;;;1.30;0.67;;;16.80;99.90;;;;;;4922461;29;20215;-87
2023/06/20 00:18:36;;;;;;;1.83;0.83;;;16.80;99.90;;;;;;4934196;29;20858;-84
2023/06/20 00:21:07;;;;;;;2.63;0.80;;;16.80;99.90;;;;;;4934851;29;20221;-85
2023/06/20 00:23:42;;;;;;;3.77;0.90;;;16.60;99.90;;;;;;4930776;29;20271;-86
2023/06/20 00:26:14;;;;;;;2.27;0.80;;;16.60;99.90;;;;;;4931892;29;20226;-85
2023/06/20 00:28:45;;;;;;;2.63;1.07;;;16.40;99.90;;;;;;4931565;29;20201;-83
2023/06/20 00:31:16;;;;;;;4.97;1.20;;;16.30;99.90;;;;;;4933392;29;20213;-84
2023/06/20 00:33:48;;;;;;;1.60;0.87;;;16.20;99.90;;;;;;4926679;29;20338;-84
2023/06/20 00:36:25;;;;;;;2.57;1.00;;;16.20;99.90;;;;;;4934587;29;20287;-82
2023/06/20 00:38:56;;;;;;;2.20;1.00;;;16.20;99.90;;;;;;4926332;29;20209;-83
2023/06/20 00:41:31;;;;;;;1.03;0.83;;;16.10;99.90;;;;;;4928383;29;20216;-84
2023/06/20 00:44:04;;;;;;;1.60;0.73;;;16.10;99.90;;;;;;4934109;29;20208;-89
2023/06/20 00:46:38;;;;;;;1.37;0.80;;;16.10;99.90;;;;;;4929247;29;20219;-86
2023/06/20 00:49:11;;;;;;;2.53;1.00;;;16.10;99.90;;;;;;4928337;29;20204;-86
2023/06/20 00:51:42;;;;;;;2.17;0.87;;;16.10;99.90;;;;;;4932256;29;20222;-85
2023/06/20 00:54:13;;;;;;;4.20;1.00;;;16.10;99.90;;;;;;4930547;29;20200;-85
2023/06/20 00:56:47;;;;;;;2.60;0.83;;;16.10;99.90;;;;;;4936655;29;20204;-86
2023/06/20 00:59:18;;;;;;;1.67;0.97;;;16.00;99.90;;;;;;4950143;29;20265;-86
2023/06/20 01:01:48;;;;;;;2.50;0.87;;;16.00;99.90;;;;;;4949322;29;20268;-85
2023/06/20 01:04:20;;;;;;;3.17;1.10;;;15.90;99.90;;;;;;4933576;29;20244;-86
2023/06/20 01:07:01;;;;;;;1.40;0.93;;;16.00;99.90;;;;;;4926939;29;20224;-85
2023/06/20 01:09:45;;;;;;;2.30;0.80;;;16.00;99.90;;;;;;4924665;29;20239;-86
2023/06/20 01:12:23;;;;;;;1.27;0.90;;;16.00;99.90;;;;;;4929212;29;20212;-86
2023/06/20 01:15:00;;;;;;;2.43;1.00;;;15.90;99.90;;;;;;4927718;29;20228;-85
2023/06/20 01:17:39;;;;;;;2.50;1.10;;;16.00;99.90;;;;;;4931572;29;20234;-88
2023/06/20 01:20:16;;;;;;;1.57;1.17;;;15.90;99.90;;;;;;4934021;29;20787;-85
2023/06/20 01:22:57;;;;;;;1.60;1.20;;;15.80;99.90;;;;;;4921652;29;20266;-85
2023/06/20 01:25:34;;;;;;;4.00;1.10;;;15.60;99.90;;;;;;4931349;29;20212;-85
2023/06/20 01:28:16;;;;;;;3.43;0.90;;;15.60;99.90;;;;;;4928290;29;20204;-87
2023/06/20 01:30:51;;;;;;;3.80;1.60;;;14.90;99.90;;;;;;4930337;29;20205;-87
2023/06/20 01:33:29;;;;;;;2.43;1.30;;;14.40;99.90;;;;;;4925545;29;20250;-83
2023/06/20 01:36:02;;;;;;;8.23;1.90;;;14.10;99.90;;;;;;4924485;29;20323;-85
2023/06/20 01:38:38;;;;;;;6.43;1.80;;;13.80;99.90;;;;;;4581344;29;10000431;-85
2023/06/20 01:41:12;;;;;;;4.47;1.80;;;13.50;99.90;;;;;;4922912;29;20212;-84
2023/06/20 01:43:46;;;;;;;5.40;2.07;;;13.30;99.90;;;;;;4928439;29;20629;-84
2023/06/20 01:46:19;;;;;;;7.60;2.30;;;13.10;99.90;;;;;;4929573;29;20703;-84
2023/06/20 01:48:52;;;;;;;10.27;2.33;;;13.00;99.90;;;;;;4927016;29;20300;-86
2023/06/20 01:51:24;;;;;;;5.27;1.93;;;12.90;99.90;;;;;;4929774;29;20292;-84
2023/06/20 01:53:57;;;;;;;17.97;3.03;;;12.80;99.90;;;;;;4933176;29;20571;-85
2023/06/20 01:56:29;;;;;;;13.90;3.47;;;12.60;99.90;;;;;;4932018;29;20236;-84
2023/06/20 01:59:02;;;;;;;11.60;2.70;;;12.60;99.90;;;;;;4929719;29;20196;-85
2023/06/20 02:01:34;;;;;;;7.90;2.50;;;12.40;99.90;;;;;;4933500;29;20806;-86
2023/06/20 02:04:07;;;;;;;11.47;1.80;;;12.40;99.90;;;;;;4928611;29;20681;-84
2023/06/20 02:06:41;;;;;;;7.73;2.20;;;12.50;99.90;;;;;;4932314;29;20224;-84
2023/06/20 02:09:14;;;;;;;9.43;2.17;;;12.50;99.90;;;;;;4933452;29;20208;-83
2023/06/20 02:11:46;;;;;;;4.70;1.40;;;12.60;99.90;;;;;;4929928;29;20671;-84
2023/06/20 02:14:19;;;;;;;4.00;1.50;;;12.60;99.90;;;;;;4931073;29;20260;-82
2023/06/20 02:16:52;;;;;;;2.10;1.23;;;12.60;99.90;;;;;;4928497;29;20684;-82
2023/06/20 02:19:23;;;;;;;3.07;1.27;;;12.60;99.90;;;;;;4932972;29;20212;-85
2023/06/20 02:21:57;;;;;;;2.10;1.00;;;12.60;99.90;;;;;;4920912;29;20268;-86
2023/06/20 02:24:33;;;;;;;2.23;1.23;;;12.60;99.90;;;;;;4924541;29;20472;-84
2023/06/20 02:27:07;;;;;;;3.23;1.23;;;12.60;99.90;;;;;;4930164;29;20542;-85
2023/06/20 02:29:39;;;;;;;2.13;1.00;;;12.60;99.90;;;;;;4923850;29;20216;-85
2023/06/20 02:32:13;;;;;;;2.23;0.90;;;12.60;99.90;;;;;;4926147;29;20212;-83
2023/06/20 02:34:47;;;;;;;0.93;0.83;;;12.60;99.90;;;;;;4929633;29;20577;-83
2023/06/20 02:37:18;;;;;;;2.03;1.10;;;12.60;99.90;;;;;;4921542;29;20220;-83
2023/06/20 02:39:51;;;;;;;2.07;1.40;;;12.60;99.90;;;;;;4927785;29;20217;-85
2023/06/20 02:42:22;;;;;;;2.70;1.30;;;12.70;99.90;;;;;;4924024;29;20200;-84
2023/06/20 02:44:54;;;;;;;2.07;1.00;;;12.70;99.90;;;;;;4926980;29;20211;-85
2023/06/20 02:47:35;;;;;;;1.63;1.00;;;12.70;99.90;;;;;;4934558;29;20657;-84
2023/06/20 02:50:13;;;;;;;2.87;1.07;;;12.70;99.90;;;;;;4929742;29;20259;-84
2023/06/20 02:52:50;;;;;;;2.60;1.23;;;12.60;99.90;;;;;;4932767;29;20234;-85
2023/06/20 02:55:34;;;;;;;1.30;0.90;;;12.60;99.90;;;;;;4933949;29;20598;-83
2023/06/20 02:58:14;;;;;;;2.20;1.13;;;12.70;99.90;;;;;;4930400;29;20283;-84
2023/06/20 03:00:48;;;;;;;1.93;1.17;;;12.70;99.90;;;;;;4934520;29;20529;-84
2023/06/20 03:03:23;;;;;;;2.27;1.10;;;12.70;99.90;;;;;;4939270;29;20220;-83
2023/06/20 03:05:58;;;;;;;1.37;1.23;;;12.70;99.90;;;;;;4932932;29;20218;-85
2023/06/20 03:08:31;;;;;;;2.37;1.20;;;12.70;99.90;;;;;;4927966;29;20207;-85
2023/06/20 03:11:04;;;;;;;4.63;1.80;;;12.80;99.90;;;;;;4922650;29;20705;-84
2023/06/20 03:13:35;;;;;;;3.93;1.50;;;12.80;99.90;;;;;;4929943;29;20653;-84
2023/06/20 03:16:09;;;;;;;4.00;1.60;;;12.80;99.90;;;;;;4924214;29;20233;-83
2023/06/20 03:18:40;;;;;;;2.33;1.30;;;12.80;99.90;;;;;;4925812;29;20205;-83
2023/06/20 03:21:11;;;;;;;3.40;1.23;;;12.70;99.90;;;;;;4929723;29;20227;-83
2023/06/20 03:23:57;;;;;;;2.67;1.10;;;12.60;99.90;;;;;;4926315;29;20630;-84
2023/06/20 03:26:31;;;;;;;1.37;1.00;;;12.60;99.90;;;;;;4923555;29;20212;-84
2023/06/20 03:29:02;;;;;;;3.70;1.60;;;12.60;99.90;;;;;;4929435;29;20700;-84
2023/06/20 03:31:33;;;;;;;3.70;1.50;;;12.60;99.90;;;;;;4928470;29;20218;-83
2023/06/20 03:34:04;;;;;;;2.83;1.60;;;12.60;99.90;;;;;;4923292;29;20200;-85
2023/06/20 03:36:35;;;;;;;2.87;1.60;;;12.50;99.90;;;;;;4927570;29;20234;-83
2023/06/20 03:39:06;;;;;;;4.43;1.67;;;12.50;99.90;;;;;;4925842;29;20211;-84
2023/06/20 03:41:38;;;;;;;2.17;1.60;;;12.40;99.90;;;;;;4922366;29;21417;-85
2023/06/20 03:44:09;;;;;;;3.50;1.60;;;12.40;99.90;;;;;;4924731;29;20213;-84
2023/06/20 03:46:41;;;;;;;2.73;1.50;;;12.30;99.90;;;;;;4917163;29;20633;-85
2023/06/20 03:49:12;;;;;;;2.17;1.40;;;12.30;99.90;;;;;;4925552;29;20220;-86
2023/06/20 03:51:44;;;;;;;2.97;1.73;;;12.30;99.90;;;;;;4932934;29;20692;-85
2023/06/20 03:54:15;;;;;;;3.23;1.60;;;12.30;99.90;;;;;;4933065;29;20300;-85
2023/06/20 03:56:49;;;;;;;2.53;1.60;;;12.30;99.90;;;;;;4929755;29;20236;-85
2023/06/20 03:59:20;;;;;;;3.53;1.60;;;12.30;99.90;;;;;;4931963;29;20216;-85
2023/06/20 04:01:52;;;;;;;4.20;1.27;;;12.20;99.90;;;;;;4929410;29;20235;-85
2023/06/20 04:04:24;;;;;;;4.00;1.83;;;12.10;99.90;;;;;;4924387;29;20203;-84
2023/06/20 04:06:55;;;;;;;2.90;1.57;;;12.20;99.90;;;;;;4915842;29;20223;-86
2023/06/20 04:09:26;;;;;;;3.03;1.80;;;12.20;99.90;;;;;;4906681;29;20295;-85
2023/06/20 04:11:59;;;;;;;4.57;2.00;;;12.20;99.90;;;;;;4915033;29;20219;-84
2023/06/20 04:14:31;;;;;;;1.97;1.60;;;12.20;99.90;;;;;;4932756;29;20212;-88
2023/06/20 04:17:02;;;;;;;3.10;1.67;;;12.20;99.90;;;;;;4926007;29;20243;-85
2023/06/20 04:19:34;;;;;;;3.47;1.50;;;12.10;99.90;;;;;;4926443;29;20722;-83
2023/06/20 04:22:06;;;;;;;4.77;1.70;;;12.20;99.90;;;;;;4926529;29;20247;-84
2023/06/20 04:24:37;;;;;;;3.60;1.90;;;12.20;99.90;;;;;;4918199;29;20295;-85
2023/06/20 04:27:10;;;;;;;2.83;1.90;;;12.20;99.90;;;;;;4916435;29;20292;-85
2023/06/20 04:29:41;;;;;;;4.17;1.97;;;12.10;99.90;;;;;;4917988;29;20290;-84
2023/06/20 04:32:12;;;;;;;3.67;2.00;;;12.10;99.90;;;;;;4924437;29;20207;-84
2023/06/20 04:34:43;;;;;;;4.70;1.80;;;12.10;99.90;;;;;;4924239;29;20913;-84
2023/06/20 04:37:14;;;;;;;4.33;1.63;;;12.10;99.90;;;;;;4926623;29;20247;-83
2023/06/20 04:39:45;;;;;;;5.23;1.63;;;12.00;99.90;;;;;;4926727;29;20243;-85
2023/06/20 04:42:18;;;;;;;4.07;2.10;;;12.00;99.90;;;;;;4924736;29;20207;-85
2023/06/20 04:44:49;;;;;;;2.30;1.80;;;12.00;99.90;;;;;;4929922;29;20578;-84
2023/06/20 04:47:21;;;;;;;3.50;1.97;;;12.00;99.90;;;;;;4917587;29;20392;-84
2023/06/20 04:49:52;;;;;;;2.87;1.90;;;12.00;99.90;;;;;;4920319;29;20244;-86
2023/06/20 04:52:24;;;;;;;4.90;2.50;;;11.90;99.90;;;;;;4927248;29;20215;-85
2023/06/20 04:55:01;;;;;;;5.07;2.10;;;12.00;99.90;;;;;;4923088;29;20208;-84
2023/06/20 04:57:35;;;;;;;6.70;2.33;;;12.00;99.90;;;;;;4915719;29;20287;-86
2023/06/20 05:00:12;;;;;;;4.90;1.80;;;11.90;99.90;;;;;;4925797;29;20536;-86
2023/06/20 05:02:44;;;;;;;4.93;1.80;;;11.90;99.90;;;;;;4926917;29;20759;-86
2023/06/20 05:05:15;;;;;;;4.73;1.80;;;11.70;99.90;;;;;;4922335;29;20291;-84
2023/06/20 05:07:47;;;;;;;3.90;1.90;;;11.80;99.90;;;;;;4926639;29;20215;-85
2023/06/20 05:10:18;;;;;;;3.13;1.70;;;11.80;99.90;;;;;;4922625;29;20222;-86
2023/06/20 05:12:51;;;;;;;3.73;1.70;;;11.80;99.90;;;;;;4927186;29;20698;-85
2023/06/20 05:15:25;;;;;;;4.60;1.90;;;11.80;99.90;;;;;;4931724;29;20268;-89
2023/06/20 05:17:56;;;;;;;3.60;1.43;;;11.90;99.90;;;;;;4922895;29;20244;-88
2023/06/20 05:20:27;;;;;;;4.30;2.23;;;11.90;99.90;;;;;;4921193;29;20287;-89
2023/06/20 05:22:59;;;;;;;2.83;1.73;;;11.80;99.90;;;;;;4932119;29;20209;-88
2023/06/20 05:25:31;;;;;;;3.77;1.67;;;11.70;99.90;;;;;;4917383;29;20276;-89
2023/06/20 05:28:04;;;;;;;6.27;2.10;;;11.80;99.90;;;;;;4916562;29;20673;-91
2023/06/20 05:30:36;;;;;;;3.67;1.80;;;11.70;99.90;;;;;;4932969;29;20216;-87
2023/06/20 05:33:08;;;;;;;1.73;1.43;;;11.70;99.90;;;;;;4924691;29;20304;-90
2023/06/20 05:35:41;;;;;;;4.33;2.03;;;11.70;99.90;;;;;;4932632;29;20296;-89
2023/06/20 05:38:12;;;;;;;7.07;1.43;;;11.80;99.90;;;;;;4928631;29;20605;-93
2023/06/20 05:40:44;;;;;;;5.83;1.83;;;11.80;99.90;;;;;;4927246;29;20232;-88
2023/06/20 05:43:16;;;;;;;4.50;1.70;;;11.70;99.90;;;;;;4920438;29;20359;-91
2023/06/20 05:45:49;;;;;;;3.80;1.70;;;11.70;99.90;;;;;;4932796;29;20204;-90
2023/06/20 05:48:23;;;;;;;4.27;1.70;;;11.60;99.90;;;;;;4927795;29;20260;-89
2023/06/20 05:50:55;;;;;;;3.97;2.00;;;11.60;99.90;;;;;;4934456;29;20204;-91
2023/06/20 05:53:27;;;;;;;6.33;1.80;;;11.70;99.90;;;;;;4927770;29;20850;-89
2023/06/20 05:55:58;;;;;;;5.50;1.77;;;11.70;99.90;;;;;;4926441;29;20205;-90
2023/06/20 05:58:32;;;;;;;3.23;1.70;;;11.70;99.90;;;;;;4929646;29;20323;-90
2023/06/20 06:01:04;;;;;;;6.20;2.13;;;11.70;99.90;;;;;;4928897;29;20197;-90
2023/06/20 06:03:35;;;;;;;4.53;1.60;;;11.70;99.90;;;;;;4918118;29;20208;-93
2023/06/20 06:06:09;;;;;;;5.97;1.63;;;11.70;99.90;;;;;;4921229;29;20213;-91
2023/06/20 06:08:41;;;;;;;7.10;1.80;;;11.70;99.90;;;;;;4920106;29;20208;-91
2023/06/20 06:11:12;;;;;;;5.87;1.67;;;11.60;99.90;;;;;;4931148;29;20291;-92
2023/06/20 06:13:47;;;;;;;5.97;2.20;;;11.60;99.90;;;;;;4917630;29;20324;-91
2023/06/20 06:16:19;;;;;;;9.10;1.93;;;11.60;99.90;;;;;;4910887;29;20203;-92
2023/06/20 06:18:51;;;;;;;4.10;1.80;;;11.50;99.90;;;;;;4929175;29;20237;-92
2023/06/20 06:21:22;;;;;;;10.20;1.80;;;11.60;99.90;;;;;;4924116;29;20220;-92
2023/06/20 06:23:54;;;;;;;9.37;2.13;;;11.60;99.90;;;;;;4928450;29;20662;-91
2023/06/20 06:26:25;;;;;;;7.47;1.73;;;11.50;99.90;;;;;;4929531;29;20200;-92
2023/06/20 06:28:59;;;;;;;9.10;1.80;;;11.50;99.90;;;;;;4923979;29;20217;-92
2023/06/20 06:31:33;;;;;;;8.73;2.07;;;11.50;99.90;;;;;;4924637;29;20213;-91
2023/06/20 06:34:07;;;;;;;6.43;2.10;;;11.60;99.90;;;;;;4942942;29;20212;-93
2023/06/20 06:36:39;;;;;;;8.10;2.07;;;11.60;99.90;;;;;;4949279;29;20201;-93
2023/06/20 06:39:13;;;;;;;7.03;1.97;;;11.60;99.90;;;;;;4925551;29;20244;-90
2023/06/20 06:41:46;;;;;;;5.17;2.20;;;11.60;99.90;;;;;;4923235;29;20216;-92
2023/06/20 06:44:20;;;;;;;11.83;2.07;;;11.60;99.90;;;;;;4933732;29;20211;-92
2023/06/20 06:46:52;;;;;;;8.53;2.17;;;11.50;99.90;;;;;;4939939;29;20295;-90
2023/06/20 06:49:24;;;;;;;5.83;1.90;;;11.60;99.90;;;;;;4930076;29;20209;-90
2023/06/20 06:51:56;;;;;;;9.10;2.40;;;11.50;99.90;;;;;;4930529;29;20232;-90
2023/06/20 06:54:27;;;;;;;11.50;2.70;;;11.50;99.90;;;;;;4926473;29;20447;-92
2023/06/20 06:56:58;;;;;;;6.47;1.80;;;11.50;99.90;;;;;;4934834;29;20208;-91
2023/06/20 06:59:31;;;;;;;6.57;2.20;;;11.60;99.90;;;;;;4933917;29;20236;-91
2023/06/20 07:02:05;;;;;;;9.17;1.80;;;11.60;99.90;;;;;;4939898;29;20234;-92
2023/06/20 07:04:37;;;;;;;11.53;1.93;;;11.50;99.90;;;;;;4939278;29;20196;-93
2023/06/20 07:07:08;;;;;;;12.23;2.17;;;11.50;99.90;;;;;;4939997;29;20224;-91
2023/06/20 07:09:41;;;;;;;5.33;1.70;;;11.50;99.90;;;;;;4929587;29;22495;-91
2023/06/20 07:12:13;;;;;;;7.10;1.97;;;11.50;99.90;;;;;;4935573;29;20328;-91
2023/06/20 07:14:50;;;;;;;8.47;1.87;;;11.50;99.90;;;;;;4938852;29;20267;-91
2023/06/20 07:17:21;;;;;;;8.77;2.30;;;11.50;99.90;;;;;;4927791;29;20296;-91
2023/06/20 07:19:53;;;;;;;7.00;2.23;;;11.50;99.90;;;;;;4926234;29;20212;-94
2023/06/20 07:22:25;;;;;;;10.43;2.40;;;11.50;99.90;;;;;;4919130;29;20307;-91
2023/06/20 07:24:56;;;;;;;8.30;2.00;;;11.50;99.90;;;;;;4927419;29;20561;-90
2023/06/20 07:27:28;;;;;;;7.67;1.97;;;11.50;99.90;;;;;;4925190;29;20224;-91
2023/06/20 07:30:01;;;;;;;11.27;2.00;;;11.50;99.90;;;;;;4934687;29;21142;-93
2023/06/20 07:32:33;;;;;;;7.03;1.80;;;11.50;99.90;;;;;;4916173;29;20209;-93
2023/06/20 07:35:08;;;;;;;8.77;2.30;;;11.60;99.90;;;;;;4931020;29;20219;-91
2023/06/20 07:37:42;;;;;;;8.77;2.13;;;11.50;99.90;;;;;;4934523;29;20204;-90
2023/06/20 07:40:14;;;;;;;10.10;2.30;;;11.50;99.90;;;;;;4932613;29;20205;-92
2023/06/20 07:42:47;;;;;;;7.40;2.13;;;11.50;99.90;;;;;;4935550;29;20228;-92
2023/06/20 07:45:20;;;;;;;7.10;1.97;;;11.50;99.90;;;;;;4933125;29;20624;-92
2023/06/20 07:47:52;;;;;;;7.13;2.13;;;11.50;99.90;;;;;;4929085;29;20307;-93
2023/06/20 07:50:24;;;;;;;12.63;2.20;;;11.50;99.90;;;;;;4935620;29;20216;-92
2023/06/20 07:52:55;;;;;;;11.47;2.20;;;11.50;99.90;;;;;;4934685;29;20214;-92
2023/06/20 07:55:27;;;;;;;7.83;2.27;;;11.50;99.90;;;;;;4935297;29;20296;-92
2023/06/20 07:58:00;;;;;;;9.33;1.83;;;11.50;99.90;;;;;;4926475;29;20236;-92
2023/06/20 08:00:34;;;;;;;9.20;2.00;;;11.50;99.90;;;;;;4926430;29;20890;-93
2023/06/20 08:03:05;;;;;;;6.67;1.93;;;11.50;99.90;;;;;;4935168;29;20214;-90
2023/06/20 08:05:37;;;;;;;15.17;3.10;;;11.40;99.90;;;;;;4934387;29;20204;-92
2023/06/20 08:08:09;;;;;;;7.37;2.10;;;11.40;99.90;;;;;;4934645;29;20557;-91
2023/06/20 08:10:41;;;;;;;8.73;2.53;;;11.50;99.90;;;;;;4927509;29;20204;-91
2023/06/20 08:13:13;;;;;;;6.97;2.00;;;11.50;99.90;;;;;;4935939;29;20226;-92
2023/06/20 08:15:47;;;;;;;8.23;2.43;;;11.50;99.90;;;;;;4920120;29;20257;-92
2023/06/20 08:18:19;;;;;;;8.10;2.30;;;11.50;99.90;;;;;;4919764;29;20225;-92
2023/06/20 08:20:54;;;;;;;11.87;2.80;;;11.40;99.90;;;;;;4922046;29;20281;-91
2023/06/20 08:23:28;;;;;;;17.27;2.57;;;11.40;99.90;;;;;;4933643;29;20626;-91
2023/06/20 08:25:59;;;;;;;13.80;2.93;;;11.40;99.90;;;;;;4937798;29;20244;-93
2023/06/20 08:28:31;;;;;;;10.90;2.40;;;11.40;99.90;;;;;;4937518;29;20304;-91
2023/06/20 08:31:05;;;;;;;14.60;2.37;;;11.40;99.90;;;;;;4933601;29;20235;-92
2023/06/20 08:33:37;;;;;;;10.00;2.47;;;11.40;99.90;;;;;;4929008;29;20242;-92
2023/06/20 08:36:10;;;;;;;12.73;2.20;;;11.40;99.90;;;;;;4934332;29;20205;-91
2023/06/20 08:38:41;;;;;;;10.87;2.60;;;11.40;99.90;;;;;;4931370;29;20318;-92
2023/06/20 08:41:12;;;;;;;9.53;2.47;;;11.50;99.90;;;;;;4924885;29;20208;-92
2023/06/20 08:43:45;;;;;;;10.27;2.33;;;11.40;99.90;;;;;;4933562;29;20251;-92
2023/06/20 08:46:18;;;;;;;11.40;2.40;;;11.40;99.90;;;;;;4914161;29;20206;-92
2023/06/20 08:48:50;;;;;;;11.10;2.53;;;11.40;99.90;;;;;;4917962;29;20383;-90
2023/06/20 08:51:24;;;;;;;7.30;1.83;;;11.40;99.90;;;;;;4928625;29;20216;-90
2023/06/20 08:53:56;;;;;;;11.40;2.80;;;11.40;99.90;;;;;;4917074;29;20288;-92
2023/06/20 08:56:27;;;;;;;14.17;2.57;;;11.40;99.90;;;;;;4923692;29;20666;-93
2023/06/20 08:59:00;;;;;;;10.00;2.20;;;11.40;99.90;;;;;;4934570;29;20705;-90
2023/06/20 09:01:35;;;;;;;9.83;2.60;;;11.40;99.90;;;;;;4935730;29;20543;-92
2023/06/20 09:04:09;;;;;;;6.67;2.30;;;11.40;99.90;;;;;;4936025;29;20200;-90
2023/06/20 09:06:40;;;;;;;8.43;3.20;;;11.30;99.90;;;;;;4942483;29;20223;-91
2023/06/20 09:09:19;;;;;;;7.60;2.27;;;11.30;99.90;;;;;;4953124;29;20282;-92
2023/06/20 09:11:55;;;;;;;12.47;2.97;;;11.40;99.90;;;;;;4929668;29;20208;-91
2023/06/20 09:14:28;;;;;;;7.87;2.40;;;11.40;99.90;;;;;;4921820;29;20275;-93
2023/06/20 09:17:03;;;;;;;9.03;2.40;;;11.40;99.90;;;;;;4937400;29;20239;-90
2023/06/20 09:19:44;;;;;;;15.73;3.03;;;11.40;99.90;;;;;;4948849;29;20312;-90
2023/06/20 09:22:21;;;;;;;14.00;2.83;;;11.40;99.90;;;;;;4936628;29;20338;-92
2023/06/20 09:24:53;;;;;;;11.00;2.40;;;11.40;99.90;;;;;;4936420;29;20291;-92
2023/06/20 09:27:24;;;;;;;9.83;2.40;;;11.40;99.90;;;;;;4936685;29;20272;-91
2023/06/20 09:30:00;;;;;;;13.43;2.50;;;11.40;99.90;;;;;;4941644;29;20234;-92
2023/06/20 09:32:37;;;;;;;10.53;2.93;;;11.40;99.90;;;;;;4934676;29;20236;-91
2023/06/20 09:35:10;;;;;;;13.17;2.60;;;11.40;99.90;;;;;;4917219;29;20208;-90
2023/06/20 09:37:42;;;;;;;13.50;2.83;;;11.30;99.90;;;;;;4916700;29;20240;-91
2023/06/20 09:40:14;;;;;;;13.40;2.50;;;11.20;99.90;;;;;;4916962;29;20252;-92
2023/06/20 09:42:47;;;;;;;14.90;2.47;;;11.30;99.90;;;;;;4930859;29;20210;-91
2023/06/20 09:45:19;;;;;;;12.70;2.70;;;11.20;99.90;;;;;;4936098;29;20279;-93
2023/06/20 09:47:53;;;;;;;11.07;2.30;;;11.20;99.90;;;;;;4935573;29;20212;-91
2023/06/20 09:50:26;;;;;;;12.50;3.07;;;11.20;99.90;;;;;;4936848;29;20208;-92
2023/06/20 09:53:06;;;;;;;13.53;2.70;;;11.20;99.90;;;;;;4935432;29;20214;-92
2023/06/20 09:55:41;;;;;;;11.17;3.10;;;11.20;99.90;;;;;;4931477;29;20200;-93
2023/06/20 09:58:14;;;;;;;12.37;3.00;;;11.20;99.90;;;;;;4931040;29;20207;-92
2023/06/20 10:00:47;;;;;;;9.80;3.07;;;11.10;99.90;;;;;;4935215;29;20748;-91
2023/06/20 10:03:20;;;;;;;14.30;2.80;;;11.10;99.90;;;;;;4934194;29;20687;-92
2023/06/20 10:05:54;;;;;;;11.37;3.03;;;11.10;99.90;;;;;;4924752;29;20550;-92
2023/06/20 10:08:27;;;;;;;13.23;2.50;;;11.00;99.90;;;;;;4931308;29;20212;-93
2023/06/20 10:11:01;;;;;;;15.13;2.97;;;11.00;99.90;;;;;;4932744;29;20312;-91
2023/06/20 10:13:32;;;;;;;18.13;3.47;;;11.00;99.90;;;;;;4933511;29;20695;-91
2023/06/20 10:16:05;;;;;;;11.63;3.13;;;11.00;99.90;;;;;;4936223;29;20673;-91
2023/06/20 10:18:43;;;;;;;18.67;3.17;;;11.00;99.90;;;;;;4929578;29;20205;-92
2023/06/20 10:21:17;;;;;;;17.60;2.70;;;10.90;99.90;;;;;;4934419;29;20228;-92
2023/06/20 10:23:51;;;;;;;13.20;3.10;;;10.90;99.90;;;;;;4938274;29;20227;-93
2023/06/20 10:26:24;;;;;;;12.07;2.67;;;10.90;99.90;;;;;;4938749;29;20566;-92
2023/06/20 10:29:00;;;;;;;10.67;3.43;;;10.90;99.90;;;;;;4936979;29;20675;-93
2023/06/20 10:31:57;;;;;;;13.90;3.00;;;10.80;99.90;;;;;;4938427;29;20238;-91
2023/06/20 10:34:37;;;;;;;12.20;3.00;;;10.80;99.90;;;;;;4936545;29;20212;-93
2023/06/20 10:37:39;;;;;;;9.70;2.90;;;10.80;99.90;;;;;;4926473;29;20219;-92
2023/06/20 10:40:29;;;;;;;18.93;3.43;;;10.80;99.90;;;;;;4915813;29;20909;-93
2023/06/20 10:43:00;;;;;;;14.03;3.20;;;10.80;99.90;;;;;;4927422;29;20672;-93
2023/06/20 10:45:32;;;;;;;11.87;3.20;;;10.80;99.90;;;;;;4938214;29;20204;-92
2023/06/20 10:48:04;;;;;;;9.43;2.97;;;10.70;99.90;;;;;;4919406;29;20701;-91
2023/06/20 10:50:38;;;;;;;10.57;3.37;;;10.70;99.90;;;;;;4920487;29;20220;-92
2023/06/20 10:53:11;;;;;;;12.50;2.87;;;10.70;99.90;;;;;;4932526;29;20313;-93
2023/06/20 10:55:42;;;;;;;16.27;3.83;;;10.70;99.90;;;;;;4937907;29;20224;-93
2023/06/20 10:58:18;;;;;;;12.83;3.10;;;10.70;99.90;;;;;;4937045;29;20299;-92
2023/06/20 11:01:04;;;;;;;8.17;2.80;;;10.60;99.90;;;;;;4937859;29;20679;-92
2023/06/20 11:03:39;;;;;;;12.37;3.20;;;10.60;99.90;;;;;;4938969;29;20344;-92
2023/06/20 11:06:17;;;;;;;9.67;3.03;;;10.60;99.90;;;;;;4928437;29;20202;-91
2023/06/20 11:08:49;;;;;;;14.43;3.30;;;10.60;99.90;;;;;;4937187;29;20232;-91
2023/06/20 11:11:33;;;;;;;11.63;2.90;;;10.50;99.90;;;;;;4934445;29;20204;-93
2023/06/20 11:14:20;;;;;;;11.87;3.57;;;10.50;99.90;;;;;;4932720;29;20216;-93
2023/06/20 11:16:55;;;;;;;10.87;3.93;;;10.50;99.90;;;;;;4930305;29;20212;-91
2023/06/20 11:19:32;;;;;;;10.53;3.40;;;10.50;99.90;;;;;;4933224;29;20220;-91
2023/06/20 11:22:10;;;;;;;12.67;3.20;;;10.50;99.90;;;;;;4937907;29;20220;-91
2023/06/20 11:24:44;;;;;;;11.00;3.23;;;10.40;99.90;;;;;;4919711;29;20720;-91
2023/06/20 11:27:22;;;;;;;10.70;4.40;;;10.40;99.90;;;;;;4930993;29;20201;-92
2023/06/20 11:29:59;;;;;;;11.50;3.17;;;10.40;99.90;;;;;;4918181;29;20209;-92
2023/06/20 11:32:36;;;;;;;14.57;3.40;;;10.30;99.90;;;;;;4933989;29;20205;-92
2023/06/20 11:35:13;;;;;;;10.50;3.17;;;10.40;99.90;;;;;;4920952;29;20219;-92
2023/06/20 11:37:50;;;;;;;12.47;3.13;;;10.40;99.90;;;;;;4919995;29;20209;-92
2023/06/20 11:40:25;;;;;;;7.53;3.27;;;10.30;99.90;;;;;;4931198;29;20235;-93
2023/06/20 11:43:07;;;;;;;12.10;3.30;;;10.30;99.90;;;;;;4919230;29;20212;-91
2023/06/20 11:45:38;;;;;;;10.50;3.23;;;10.30;99.90;;;;;;4920290;29;20215;-91
2023/06/20 11:48:13;;;;;;;12.27;3.23;;;10.30;99.90;;;;;;4937264;29;20657;-91
2023/06/20 11:50:47;;;;;;;10.67;3.20;;;10.30;99.90;;;;;;4938908;29;20225;-92
2023/06/20 11:53:29;;;;;;;8.03;2.67;;;10.30;99.90;;;;;;4938570;29;20659;-91
2023/06/20 11:56:03;;;;;;;11.40;2.97;;;10.30;99.90;;;;;;4944518;29;20216;-91
2023/06/20 11:58:48;;;;;;;10.57;3.30;;;10.20;99.90;;;;;;4932009;29;20215;-91
2023/06/20 12:01:24;;;;;;;12.90;3.40;;;10.30;99.90;;;;;;4937543;29;21054;-91
2023/06/20 12:04:06;;;;;;;9.60;3.47;;;10.20;99.90;;;;;;4937301;29;20208;-91
2023/06/20 12:06:39;;;;;;;10.10;3.60;;;10.20;99.90;;;;;;4934755;29;20208;-91
2023/06/20 12:09:28;;;;;;;7.80;3.40;;;10.20;99.90;;;;;;4922551;29;20300;-92
2023/06/20 12:12:04;;;;;;;8.60;3.07;;;10.20;99.90;;;;;;4930389;29;20221;-91
2023/06/20 12:14:37;;;;;;;13.77;3.33;;;10.20;99.90;;;;;;4917480;29;20232;-91
2023/06/20 12:17:09;;;;;;;12.80;3.50;;;10.20;99.90;;;;;;4928391;29;20232;-91
2023/06/20 12:19:53;;;;;;;15.30;3.60;;;10.20;99.90;;;;;;4934116;29;20223;-91
2023/06/20 12:22:28;;;;;;;9.37;3.20;;;10.20;99.90;;;;;;4937088;29;20216;-93
2023/06/20 12:25:06;;;;;;;16.90;4.10;;;10.20;99.90;;;;;;4931438;29;20256;-93
2023/06/20 12:27:38;;;;;;;10.77;3.53;;;10.20;99.90;;;;;;4936101;29;20520;-91
2023/06/20 12:30:11;;;;;;;13.30;3.83;;;10.20;99.90;;;;;;4937029;29;20307;-92
2023/06/20 12:32:41;;;;;;;8.90;3.23;;;10.20;99.90;;;;;;4924193;29;20215;-93
2023/06/20 12:35:12;;;;;;;9.40;3.47;;;10.20;99.90;;;;;;4916403;29;20333;-93
2023/06/20 12:37:45;;;;;;;11.33;3.60;;;10.20;99.90;;;;;;4929665;29;20208;-92
2023/06/20 12:40:20;;;;;;;7.67;2.93;;;10.20;99.90;;;;;;4935083;29;20267;-94
2023/06/20 12:42:53;;;;;;;9.33;3.43;;;10.20;99.90;;;;;;4921831;29;20692;-91
2023/06/20 12:45:25;;;;;;;8.33;3.27;;;10.20;99.90;;;;;;4924231;29;20610;-92
2023/06/20 12:47:56;;;;;;;11.10;2.83;;;10.30;99.90;;;;;;4916982;29;20215;-91
2023/06/20 12:50:28;;;;;;;11.63;3.17;;;10.20;99.90;;;;;;4922896;29;20212;-92
2023/06/20 12:52:59;;;;;;;8.40;2.77;;;10.20;99.90;;;;;;4935436;29;20741;-93
2023/06/20 12:55:33;;;;;;;9.17;2.83;;;10.20;99.90;;;;;;4935391;29;20204;-92
2023/06/20 12:58:08;;;;;;;10.47;2.90;;;10.20;99.90;;;;;;4927051;29;20230;-92
2023/06/20 13:00:43;;;;;;;11.77;3.80;;;10.20;99.90;;;;;;4937403;29;20224;-92
2023/06/20 13:03:14;;;;;;;7.80;3.10;;;10.20;99.90;;;;;;4936231;29;20204;-92
2023/06/20 13:05:45;;;;;;;9.20;3.17;;;10.20;99.90;;;;;;4941099;29;20204;-94
2023/06/20 13:08:18;;;;;;;7.63;2.73;;;10.20;99.90;;;;;;4949006;29;20208;-92
2023/06/20 13:10:52;;;;;;;6.50;2.87;;;10.20;99.90;;;;;;4938404;29;20245;-94
2023/06/20 13:13:24;;;;;;;6.87;2.50;;;10.20;99.90;;;;;;4925175;29;20268;-91
2023/06/20 13:16:07;;;;;;;8.33;2.97;;;10.20;99.90;;;;;;4942205;29;20219;-91